Time;durP1;ratioP1;P1;durP2;ratioP2;P2;SDS_P1;SDS_P2;PMS_P1;PMS_P2;Temp;Humidity;BMP_temperature;BMP_pressure;BME280_temperature;BME280_humidity;BME280_pressure;Samples;Min_cycle;Max_cycle;Signal;HPM_P1;HPM_P2
2021/07/28 00:02:08;;;;;;;0.73;0.60;;;16.90;86.70;;;;;;6285857;22;20003;-83
2021/07/28 00:04:36;;;;;;;0.82;0.82;;;16.90;86.70;;;;;;6286548;22;20429;-83
2021/07/28 00:07:02;;;;;;;0.80;0.70;;;16.90;86.80;;;;;;6338870;22;20427;-83
2021/07/28 00:09:27;;;;;;;0.88;0.60;;;16.90;86.80;;;;;;6311027;22;20011;-83
2021/07/28 00:11:53;;;;;;;0.88;0.80;;;16.90;86.80;;;;;;6338399;22;20030;-83
2021/07/28 00:14:19;;;;;;;0.88;0.85;;;16.90;86.80;;;;;;6310669;22;20011;-82
2021/07/28 00:16:45;;;;;;;1.00;0.90;;;16.80;86.80;;;;;;6285354;22;20010;-83
2021/07/28 00:19:17;;;;;;;1.30;0.98;;;16.80;86.90;;;;;;6285396;22;20442;-83
2021/07/28 00:24:30;;;;;;;2.38;0.90;;;16.80;87.00;;;;;;6292246;22;20378;-83
2021/07/28 00:26:56;;;;;;;0.70;0.70;;;16.80;87.00;;;;;;6261075;22;20038;-83
2021/07/28 00:29:22;;;;;;;1.02;0.80;;;16.80;87.00;;;;;;6285079;22;20464;-82
2021/07/28 00:31:47;;;;;;;0.90;0.73;;;16.70;87.00;;;;;;6310760;22;20081;-83
2021/07/28 00:34:13;;;;;;;0.65;0.65;;;16.70;87.00;;;;;;6338263;22;20067;-82
2021/07/28 00:36:39;;;;;;;1.23;0.88;;;16.70;87.00;;;;;;6285155;22;20006;-83
2021/07/28 00:39:05;;;;;;;0.85;0.70;;;16.80;87.10;;;;;;6285055;22;20007;-83
2021/07/28 00:41:30;;;;;;;0.85;0.80;;;16.70;87.00;;;;;;6338769;22;20007;-82
2021/07/28 00:43:56;;;;;;;1.52;0.80;;;16.70;87.00;;;;;;6284761;22;20002;-83
2021/07/28 00:46:22;;;;;;;0.70;0.70;;;16.70;87.00;;;;;;6284486;22;20015;-82
2021/07/28 00:48:47;;;;;;;0.80;0.80;;;16.70;87.10;;;;;;6338153;22;20393;-82
2021/07/28 00:51:13;;;;;;;1.10;0.80;;;16.70;87.10;;;;;;6285155;22;20094;-83
2021/07/28 00:53:39;;;;;;;1.08;0.85;;;16.70;87.10;;;;;;6284852;22;20331;-82
2021/07/28 00:56:05;;;;;;;0.82;0.73;;;16.60;87.10;;;;;;6310747;22;20020;-82
2021/07/28 00:58:31;;;;;;;1.02;0.80;;;16.60;87.10;;;;;;6338165;22;20363;-82
2021/07/28 01:00:57;;;;;;;0.93;0.77;;;16.60;87.20;;;;;;6338896;22;20007;-82
2021/07/28 01:03:22;;;;;;;0.73;0.50;;;16.60;87.30;;;;;;6259523;22;20057;-82
2021/07/28 01:05:48;;;;;;;0.47;0.45;;;16.50;87.30;;;;;;6338223;22;20056;-82
2021/07/28 01:08:15;;;;;;;1.60;0.90;;;16.50;87.30;;;;;;6310745;22;20033;-82
2021/07/28 01:10:41;;;;;;;0.90;0.68;;;16.50;87.30;;;;;;6285205;22;20017;-82
2021/07/28 01:13:07;;;;;;;1.02;0.82;;;16.50;87.40;;;;;;6338968;22;20030;-83
2021/07/28 01:15:43;;;;;;;1.50;0.70;;;16.50;87.30;;;;;;6285213;22;20019;-82
2021/07/28 01:18:13;;;;;;;0.95;0.82;;;16.60;87.30;;;;;;6287184;22;20038;-82
2021/07/28 01:20:43;;;;;;;1.20;1.00;;;16.60;87.30;;;;;;6311122;22;20037;-83
2021/07/28 01:23:18;;;;;;;1.08;0.80;;;16.60;87.20;;;;;;6310717;22;20368;-81
2021/07/28 01:25:45;;;;;;;0.80;0.68;;;16.60;87.20;;;;;;6310423;22;20007;-81
2021/07/28 01:28:12;;;;;;;1.23;0.80;;;16.60;87.20;;;;;;6338213;22;20037;-81
2021/07/28 01:30:38;;;;;;;1.45;0.93;;;16.50;87.20;;;;;;6284547;22;20003;-82
2021/07/28 01:33:05;;;;;;;1.42;1.00;;;16.50;87.20;;;;;;6310538;22;20010;-81
2021/07/28 01:35:34;;;;;;;0.57;0.57;;;16.50;87.30;;;;;;6310095;22;20414;-82
2021/07/28 01:38:00;;;;;;;1.27;0.85;;;16.50;87.40;;;;;;6338836;22;20539;-82
2021/07/28 01:40:26;;;;;;;1.10;1.00;;;16.50;87.50;;;;;;6284982;22;20014;-83
2021/07/28 01:42:51;;;;;;;0.88;0.65;;;16.40;87.50;;;;;;6259566;22;20030;-82
2021/07/28 01:45:17;;;;;;;1.15;0.90;;;16.40;87.50;;;;;;6310585;22;20431;-82
2021/07/28 01:47:44;;;;;;;1.58;0.80;;;16.40;87.50;;;;;;6284731;22;20011;-81
2021/07/28 01:50:11;;;;;;;1.40;0.90;;;16.50;87.50;;;;;;6310937;22;20010;-82
2021/07/28 01:52:38;;;;;;;1.60;1.02;;;16.40;87.50;;;;;;6337556;22;20010;-82
2021/07/28 01:55:07;;;;;;;1.50;1.10;;;16.40;87.50;;;;;;6310481;22;20007;-82
2021/07/28 01:57:33;;;;;;;1.35;1.00;;;16.50;87.50;;;;;;6284457;22;20458;-83
2021/07/28 02:00:00;;;;;;;1.90;1.17;;;16.40;88.10;;;;;;6258965;22;19999;-82
2021/07/28 02:02:31;;;;;;;1.08;0.90;;;16.50;87.50;;;;;;6259273;22;20013;-81
2021/07/28 02:04:59;;;;;;;1.83;1.20;;;16.40;87.50;;;;;;6337726;22;20007;-81
2021/07/28 02:07:25;;;;;;;1.25;0.95;;;16.40;87.50;;;;;;6292043;22;20011;-80
2021/07/28 02:09:51;;;;;;;0.90;0.82;;;16.40;87.40;;;;;;6327452;22;20038;-81
2021/07/28 02:12:17;;;;;;;1.02;0.80;;;16.30;87.50;;;;;;6287621;22;20335;-82
2021/07/28 02:14:42;;;;;;;1.15;0.75;;;16.30;87.50;;;;;;6286663;22;20014;-81
2021/07/28 02:17:08;;;;;;;0.63;0.63;;;16.40;87.60;;;;;;6259149;22;20041;-81
2021/07/28 02:19:34;;;;;;;1.63;0.75;;;16.30;87.60;;;;;;6284784;22;20011;-81
2021/07/28 02:22:00;;;;;;;1.13;0.85;;;16.30;87.60;;;;;;6284325;22;20007;-81
2021/07/28 02:24:26;;;;;;;1.02;0.75;;;16.40;87.70;;;;;;6258976;22;20006;-81
2021/07/28 02:26:52;;;;;;;0.70;0.70;;;16.30;87.70;;;;;;6284613;22;20014;-81
2021/07/28 02:29:18;;;;;;;1.17;1.02;;;16.30;87.70;;;;;;6338021;22;20006;-81
2021/07/28 02:31:44;;;;;;;1.00;0.90;;;16.30;87.80;;;;;;6284546;22;20013;-81
2021/07/28 02:34:10;;;;;;;1.15;0.88;;;16.30;87.80;;;;;;6284411;22;20066;-81
2021/07/28 02:36:35;;;;;;;1.70;1.00;;;16.30;87.80;;;;;;6281488;22;20038;-82
2021/07/28 02:39:01;;;;;;;1.20;0.88;;;16.30;87.90;;;;;;6285305;22;20055;-82
2021/07/28 02:41:27;;;;;;;1.33;0.90;;;16.30;87.90;;;;;;6337563;22;20061;-81
2021/07/28 02:43:52;;;;;;;1.42;0.80;;;16.20;87.90;;;;;;6284603;22;20011;-81
2021/07/28 02:46:21;;;;;;;1.23;0.75;;;16.20;87.90;;;;;;6310483;22;20461;-81
2021/07/28 02:48:47;;;;;;;0.88;0.70;;;16.10;87.80;;;;;;6311298;22;20007;-81
2021/07/28 02:51:13;;;;;;;1.45;1.10;;;16.20;87.90;;;;;;6309970;22;20042;-82
2021/07/28 02:53:38;;;;;;;0.60;0.60;;;16.20;88.00;;;;;;6310341;22;20007;-82
2021/07/28 02:56:04;;;;;;;0.70;0.70;;;16.20;88.10;;;;;;6337399;22;20040;-81
2021/07/28 02:58:30;;;;;;;0.70;0.70;;;16.20;88.10;;;;;;6309564;22;20039;-83
2021/07/28 03:00:56;;;;;;;0.70;0.70;;;16.20;88.10;;;;;;6284076;22;20056;-81
2021/07/28 03:03:23;;;;;;;0.60;0.50;;;16.20;88.20;;;;;;6258534;22;20003;-82
2021/07/28 03:05:50;;;;;;;0.70;0.65;;;16.20;88.10;;;;;;6284540;22;20535;-82
2021/07/28 03:08:16;;;;;;;0.70;0.70;;;16.20;88.20;;;;;;6259384;22;20017;-81
2021/07/28 03:10:41;;;;;;;1.00;0.90;;;16.20;88.10;;;;;;6286095;22;20006;-81
2021/07/28 03:13:07;;;;;;;1.80;1.05;;;16.20;88.00;;;;;;6285994;22;20006;-81
2021/07/28 03:15:33;;;;;;;0.60;0.60;;;16.20;88.60;;;;;;6285543;22;20323;-81
2021/07/28 03:18:00;;;;;;;0.60;0.60;;;16.20;88.00;;;;;;6339343;22;20330;-81
2021/07/28 03:20:26;;;;;;;1.00;0.85;;;16.30;88.00;;;;;;6311243;22;20008;-81
2021/07/28 03:22:51;;;;;;;1.35;0.80;;;16.30;88.00;;;;;;6310671;22;20007;-81
2021/07/28 03:25:17;;;;;;;1.55;0.98;;;16.30;88.00;;;;;;6311272;22;20041;-81
2021/07/28 03:27:43;;;;;;;1.10;0.88;;;16.30;88.00;;;;;;6310567;22;20435;-81
2021/07/28 03:30:09;;;;;;;1.15;0.93;;;16.20;87.90;;;;;;6310708;22;20007;-81
2021/07/28 03:32:34;;;;;;;1.75;0.90;;;16.30;88.00;;;;;;6285216;22;20010;-81
2021/07/28 03:35:00;;;;;;;1.00;0.80;;;16.30;88.00;;;;;;6310655;22;20013;-81
2021/07/28 03:37:26;;;;;;;0.63;0.63;;;16.30;88.10;;;;;;6311698;22;20003;-81
2021/07/28 03:40:00;;;;;;;0.80;0.70;;;16.20;88.00;;;;;;6284877;22;20022;-81
2021/07/28 03:42:28;;;;;;;0.73;0.73;;;16.30;88.10;;;;;;6262665;22;20003;-81
2021/07/28 03:44:53;;;;;;;0.75;0.60;;;16.30;88.10;;;;;;6311128;22;20022;-81
2021/07/28 03:47:19;;;;;;;1.15;0.82;;;16.30;88.00;;;;;;6285057;22;20434;-80
2021/07/28 03:49:45;;;;;;;1.10;0.75;;;16.30;88.00;;;;;;6310926;22;20002;-81
2021/07/28 03:52:10;;;;;;;0.82;0.80;;;16.30;88.00;;;;;;6285173;22;20093;-81
2021/07/28 03:54:36;;;;;;;1.52;1.08;;;16.30;88.00;;;;;;6344409;22;20003;-80
2021/07/28 03:57:02;;;;;;;1.10;0.90;;;16.30;88.10;;;;;;6319310;22;20013;-81
2021/07/28 03:59:27;;;;;;;1.23;1.02;;;16.20;88.20;;;;;;6285108;22;20445;-81
2021/07/28 04:01:53;;;;;;;0.90;0.70;;;16.20;88.20;;;;;;6286001;22;20007;-81
2021/07/28 04:04:19;;;;;;;1.35;0.80;;;16.30;88.30;;;;;;6311867;22;19999;-81
2021/07/28 04:06:44;;;;;;;0.80;0.63;;;16.30;88.20;;;;;;6339265;22;20017;-81
2021/07/28 04:09:10;;;;;;;0.80;0.80;;;16.30;88.30;;;;;;6338562;22;20015;-83
2021/07/28 04:11:36;;;;;;;1.15;0.80;;;16.30;88.30;;;;;;6259486;22;20080;-81
2021/07/28 04:14:02;;;;;;;0.80;0.70;;;16.30;88.20;;;;;;6339015;22;20002;-82
2021/07/28 04:16:27;;;;;;;1.77;1.20;;;16.30;88.20;;;;;;6311905;22;20028;-83
2021/07/28 04:18:53;;;;;;;2.35;1.10;;;16.30;88.10;;;;;;6338949;22;20046;-83
2021/07/28 04:21:19;;;;;;;1.40;1.20;;;16.30;88.10;;;;;;6310990;22;19999;-81
2021/07/28 04:23:44;;;;;;;1.35;1.10;;;16.30;88.10;;;;;;6339013;22;20034;-81
2021/07/28 04:26:10;;;;;;;1.00;0.88;;;16.30;88.10;;;;;;6311489;22;20006;-81
2021/07/28 04:28:36;;;;;;;1.25;0.88;;;16.40;88.10;;;;;;6284969;22;20086;-82
2021/07/28 04:31:01;;;;;;;1.90;1.17;;;16.40;88.00;;;;;;6285166;22;20076;-81
2021/07/28 04:33:27;;;;;;;1.95;1.00;;;16.40;88.00;;;;;;6310869;22;20326;-81
2021/07/28 04:35:53;;;;;;;1.08;0.98;;;16.40;88.00;;;;;;6259161;22;20508;-81
2021/07/28 04:38:18;;;;;;;1.50;1.08;;;16.40;88.00;;;;;;6284922;22;20014;-82
2021/07/28 04:40:44;;;;;;;1.05;0.93;;;16.40;87.90;;;;;;6338077;22;20007;-81
2021/07/28 04:43:10;;;;;;;1.77;1.30;;;16.50;88.00;;;;;;6310433;22;20327;-81
2021/07/28 04:45:36;;;;;;;1.25;1.02;;;16.60;88.00;;;;;;6338231;22;20042;-81
2021/07/28 04:48:04;;;;;;;1.65;1.30;;;16.50;87.90;;;;;;6311066;22;20507;-81
2021/07/28 04:50:29;;;;;;;1.88;1.35;;;16.60;87.90;;;;;;6285352;22;20447;-81
2021/07/28 04:52:55;;;;;;;1.40;1.20;;;16.60;87.90;;;;;;6310388;22;20017;-82
2021/07/28 04:55:21;;;;;;;1.67;1.20;;;16.60;87.90;;;;;;6310578;22;20041;-81
2021/07/28 04:57:46;;;;;;;2.45;1.52;;;16.60;87.80;;;;;;6338666;22;20030;-81
2021/07/28 05:00:12;;;;;;;2.00;1.38;;;16.60;87.80;;;;;;6310390;22;20359;-81
2021/07/28 05:02:38;;;;;;;2.00;1.20;;;16.60;87.80;;;;;;6310208;22;20013;-81
2021/07/28 05:05:04;;;;;;;2.05;1.38;;;16.70;87.80;;;;;;6284547;22;20007;-80
2021/07/28 05:07:30;;;;;;;1.75;1.30;;;16.70;87.80;;;;;;6310127;22;20021;-81
2021/07/28 05:09:55;;;;;;;1.75;1.20;;;16.70;87.80;;;;;;6311223;22;20011;-81
2021/07/28 05:12:21;;;;;;;1.70;1.20;;;16.70;87.80;;;;;;6284741;22;20007;-81
2021/07/28 05:14:47;;;;;;;2.17;1.48;;;16.70;87.80;;;;;;6285245;22;20026;-82
2021/07/28 05:17:13;;;;;;;2.03;1.52;;;16.70;87.80;;;;;;6310380;22;20022;-81
2021/07/28 05:19:39;;;;;;;2.90;1.60;;;16.60;87.80;;;;;;6285392;22;20007;-81
2021/07/28 05:22:05;;;;;;;2.65;1.60;;;16.70;87.90;;;;;;6311342;22;20431;-82
2021/07/28 05:24:30;;;;;;;2.70;1.75;;;16.80;87.90;;;;;;6310491;22;20089;-81
2021/07/28 05:26:56;;;;;;;1.38;1.20;;;16.80;87.80;;;;;;6284708;22;19999;-82
2021/07/28 05:29:22;;;;;;;2.50;1.30;;;16.80;87.80;;;;;;6310629;22;20014;-81
2021/07/28 05:31:47;;;;;;;1.90;1.38;;;16.80;87.80;;;;;;6283586;22;20003;-81
2021/07/28 05:34:13;;;;;;;2.38;1.80;;;16.80;87.80;;;;;;6284883;22;20007;-82
2021/07/28 05:36:39;;;;;;;2.47;1.60;;;16.90;87.90;;;;;;6310780;22;20011;-82
2021/07/28 05:39:05;;;;;;;2.03;1.40;;;16.90;87.80;;;;;;6284743;22;20003;-82
2021/07/28 05:41:30;;;;;;;2.15;1.55;;;16.90;87.80;;;;;;6284670;22;20068;-82
2021/07/28 05:43:56;;;;;;;2.00;1.30;;;16.90;87.80;;;;;;6310131;22;20093;-83
2021/07/28 05:46:22;;;;;;;2.65;1.52;;;17.00;87.90;;;;;;6284849;22;20007;-83
2021/07/28 05:48:47;;;;;;;2.33;1.50;;;17.00;87.90;;;;;;6338092;22;20006;-82
2021/07/28 05:51:13;;;;;;;2.30;1.40;;;17.00;87.90;;;;;;6338402;22;20426;-82
2021/07/28 05:53:40;;;;;;;2.30;1.50;;;17.00;87.80;;;;;;6338104;22;20007;-83
2021/07/28 05:56:06;;;;;;;3.33;1.50;;;17.10;87.90;;;;;;6285604;22;20070;-83
2021/07/28 05:58:32;;;;;;;1.63;1.15;;;17.00;87.80;;;;;;6310357;22;20443;-82
2021/07/28 06:00:57;;;;;;;1.67;1.40;;;17.20;87.90;;;;;;6260013;22;20077;-83
2021/07/28 06:03:23;;;;;;;2.08;1.50;;;17.10;87.90;;;;;;6284872;22;20007;-82
2021/07/28 06:05:49;;;;;;;1.60;1.30;;;17.20;87.90;;;;;;6284884;22;20063;-83
2021/07/28 06:08:14;;;;;;;2.33;1.60;;;17.20;87.90;;;;;;6310295;22;20018;-83
2021/07/28 06:10:40;;;;;;;1.85;1.38;;;17.20;87.90;;;;;;6310678;22;20092;-82
2021/07/28 06:13:06;;;;;;;2.13;1.50;;;17.30;87.90;;;;;;6262434;22;20007;-83
2021/07/28 06:15:31;;;;;;;2.30;1.58;;;17.30;87.80;;;;;;6288664;22;20011;-82
2021/07/28 06:17:57;;;;;;;2.20;1.52;;;17.40;87.70;;;;;;6313794;22;20033;-82
2021/07/28 06:20:23;;;;;;;2.10;1.48;;;17.40;87.80;;;;;;6287448;22;20011;-83
2021/07/28 06:22:50;;;;;;;2.78;1.70;;;17.40;87.70;;;;;;6312990;22;20536;-82
2021/07/28 06:25:15;;;;;;;2.25;1.67;;;17.50;87.70;;;;;;6314026;22;20089;-83
2021/07/28 06:27:41;;;;;;;3.03;1.83;;;17.60;87.60;;;;;;6286259;22;20010;-82
2021/07/28 06:30:07;;;;;;;2.78;1.80;;;17.60;87.50;;;;;;6287085;22;20018;-82
2021/07/28 06:32:35;;;;;;;2.58;1.77;;;17.60;87.40;;;;;;6312493;22;20011;-81
2021/07/28 06:35:00;;;;;;;2.92;1.90;;;17.60;87.40;;;;;;6312922;22;20045;-82
2021/07/28 06:37:26;;;;;;;1.80;1.40;;;17.70;87.50;;;;;;6313168;22;20296;-81
2021/07/28 06:39:52;;;;;;;2.50;1.70;;;17.70;87.40;;;;;;6311989;22;19999;-82
2021/07/28 06:42:17;;;;;;;2.95;1.95;;;17.80;87.40;;;;;;6313319;22;20003;-81
2021/07/28 06:44:44;;;;;;;2.85;1.83;;;17.70;87.20;;;;;;6286397;22;20025;-81
2021/07/28 06:47:10;;;;;;;3.83;2.30;;;17.90;87.30;;;;;;6313179;22;20003;-81
2021/07/28 06:49:36;;;;;;;4.88;2.60;;;17.90;87.20;;;;;;6312547;22;20059;-81
2021/07/28 06:52:02;;;;;;;3.13;2.25;;;18.00;87.20;;;;;;6312386;22;20031;-82
2021/07/28 06:54:27;;;;;;;3.42;2.38;;;18.00;87.00;;;;;;6339628;22;20402;-82
2021/07/28 06:56:53;;;;;;;3.58;2.58;;;18.10;86.90;;;;;;6312094;22;20011;-82
2021/07/28 06:59:19;;;;;;;5.05;2.50;;;18.00;86.90;;;;;;6312452;22;20002;-81
2021/07/28 07:01:45;;;;;;;3.00;2.25;;;18.10;87.10;;;;;;6341034;22;20280;-85
2021/07/28 07:08:18;;;;;;;3.30;1.80;;;18.10;87.20;;;;;;6341028;22;20033;-87
2021/07/28 07:10:55;;;;;;;2.80;1.90;;;18.10;87.10;;;;;;6263298;22;20010;-88
2021/07/28 07:16:59;;;;;;;2.53;1.75;;;18.20;87.00;;;;;;6153015;23;20049;-83
2021/07/28 07:19:25;;;;;;;3.20;2.00;;;18.30;86.80;;;;;;6153724;23;20064;-86
2021/07/28 07:21:52;;;;;;;2.75;1.83;;;18.60;86.70;;;;;;6128420;23;20501;-85
2021/07/28 07:24:18;;;;;;;3.00;2.00;;;18.40;86.70;;;;;;6153803;23;20121;-84
2021/07/28 07:26:50;;;;;;;1.83;1.38;;;18.40;86.70;;;;;;6153581;23;20013;-86
2021/07/28 07:29:19;;;;;;;2.35;1.80;;;18.40;86.70;;;;;;6148832;23;20013;-82
2021/07/28 07:31:47;;;;;;;3.03;2.10;;;18.50;86.60;;;;;;6151840;23;20496;-83
2021/07/28 07:34:21;;;;;;;2.30;1.60;;;18.50;86.60;;;;;;6153214;23;20437;-84
2021/07/28 07:37:47;;;;;;;2.75;1.75;;;18.50;86.60;;;;;;6160302;23;20108;-83
2021/07/28 07:40:16;;;;;;;2.25;1.77;;;18.50;86.50;;;;;;6010798;23;20042;-83
2021/07/28 07:42:42;;;;;;;1.83;1.52;;;18.50;86.40;;;;;;6009273;23;20334;-80
2021/07/28 07:45:08;;;;;;;2.05;1.58;;;18.50;86.30;;;;;;6013903;23;20118;-80
2021/07/28 07:47:34;;;;;;;1.92;1.60;;;18.50;86.50;;;;;;6004621;23;20024;-79
2021/07/28 07:50:00;;;;;;;2.33;1.60;;;18.60;86.30;;;;;;6015902;23;20130;-80
2021/07/28 07:52:25;;;;;;;2.15;1.60;;;18.90;86.20;;;;;;6007287;23;20024;-78
2021/07/28 07:54:51;;;;;;;2.20;1.42;;;18.90;85.80;;;;;;6048483;23;20375;-79
2021/07/28 08:00:04;;;;;;;3.42;1.73;;;19.20;85.10;;;;;;6055938;23;20065;-81
2021/07/28 08:02:32;;;;;;;2.53;1.67;;;19.40;84.90;;;;;;6100380;23;20045;-83
2021/07/28 08:04:57;;;;;;;2.33;1.30;;;19.60;84.40;;;;;;6050372;23;20324;-79
2021/07/28 08:07:23;;;;;;;1.35;1.05;;;19.70;84.20;;;;;;6075512;23;20021;-82
2021/07/28 08:09:48;;;;;;;2.10;1.40;;;19.80;83.90;;;;;;6122378;23;20019;-81
2021/07/28 08:12:16;;;;;;;2.33;1.50;;;19.80;83.50;;;;;;6159347;23;20365;-83
2021/07/28 08:14:42;;;;;;;1.83;1.40;;;19.90;83.60;;;;;;6148111;22;20015;-79
2021/07/28 08:17:08;;;;;;;2.05;1.50;;;19.80;83.80;;;;;;6344159;22;20010;-82
2021/07/28 08:19:33;;;;;;;2.20;1.40;;;19.70;84.20;;;;;;6290563;22;20009;-81
2021/07/28 08:21:59;;;;;;;2.45;1.63;;;19.70;84.30;;;;;;6262547;22;20007;-81
2021/07/28 08:24:25;;;;;;;2.20;1.77;;;19.80;83.90;;;;;;6342595;22;20081;-83
2021/07/28 08:26:50;;;;;;;2.88;1.90;;;19.80;83.30;;;;;;6265654;22;20011;-82
2021/07/28 08:29:16;;;;;;;2.35;1.70;;;19.80;83.60;;;;;;6319177;22;20442;-81
2021/07/28 08:31:42;;;;;;;2.60;1.60;;;19.70;83.50;;;;;;6289308;22;20435;-80
2021/07/28 08:34:07;;;;;;;2.35;1.73;;;19.90;83.70;;;;;;6315558;22;20308;-81
2021/07/28 08:36:33;;;;;;;2.70;1.60;;;20.00;83.10;;;;;;6288401;22;20071;-82
2021/07/28 08:39:10;;;;;;;1.90;1.40;;;20.00;82.80;;;;;;6258055;22;20011;-86
2021/07/28 08:49:30;;;;;;;2.42;1.50;;;20.00;83.00;;;;;;6181973;23;20048;-83
2021/07/28 08:55:34;;;;;;;2.63;1.67;;;20.30;81.90;;;;;;5953917;24;20053;-86
2021/07/28 08:58:47;;;;;;;2.45;1.55;;;20.50;82.00;;;;;;5951539;24;20017;-84
2021/07/28 09:01:17;;;;;;;2.20;1.50;;;20.50;81.50;;;;;;5826844;24;20018;-85
2021/07/28 09:03:45;;;;;;;1.63;1.35;;;20.60;81.40;;;;;;5875730;24;20076;-81
2021/07/28 09:06:26;;;;;;;2.50;1.63;;;20.70;81.10;;;;;;5853551;24;20022;-79
2021/07/28 09:08:56;;;;;;;;;;;20.80;80.50;;;;;;5856892;24;20022;-83
2021/07/28 09:11:22;;;;;;;4.50;1.77;;;20.80;80.30;;;;;;5871060;24;19912;-81
2021/07/28 09:13:47;;;;;;;2.30;1.67;;;20.90;80.00;;;;;;5875182;24;20026;-82
2021/07/28 09:16:33;;;;;;;2.78;1.73;;;20.80;79.70;;;;;;5868714;24;20033;-81
2021/07/28 09:18:59;;;;;;;1.50;1.40;;;20.80;79.80;;;;;;5882367;24;20022;-82
2021/07/28 09:21:30;;;;;;;1.90;1.60;;;20.80;79.90;;;;;;5926183;24;20049;-85
2021/07/28 09:26:57;;;;;;;1.65;1.50;;;20.70;79.80;;;;;;6056866;23;20015;-84
2021/07/28 09:33:22;;;;;;;1.20;1.10;;;20.90;79.70;;;;;;6130380;23;20083;-89
2021/07/28 09:36:14;;;;;;;1.45;1.30;;;20.80;79.70;;;;;;6119969;23;20028;-90
2021/07/28 09:38:43;;;;;;;1.52;0.90;;;20.70;79.90;;;;;;6057550;23;20387;-81
2021/07/28 09:41:12;;;;;;;2.08;1.13;;;20.60;80.00;;;;;;6076567;23;20014;-81
2021/07/28 09:43:51;;;;;;;1.48;0.93;;;20.60;80.20;;;;;;6099972;23;20125;-84
2021/07/28 09:46:42;;;;;;;1.75;1.10;;;20.70;80.20;;;;;;6078511;23;20486;-86
2021/07/28 09:49:17;;;;;;;1.75;1.08;;;21.00;79.70;;;;;;6110874;23;20022;-81
2021/07/28 09:52:09;;;;;;;0.95;0.90;;;21.30;79.10;;;;;;6089579;23;20027;-82
2021/07/28 09:54:41;;;;;;;1.48;1.27;;;21.40;78.50;;;;;;6055416;23;20042;-84
2021/07/28 09:57:20;;;;;;;1.58;1.15;;;21.50;78.20;;;;;;6083394;23;20076;-87
2021/07/28 10:00:03;;;;;;;2.58;1.10;;;21.30;78.30;;;;;;6095217;23;20018;-85
2021/07/28 10:02:43;;;;;;;1.58;1.00;;;21.30;78.20;;;;;;6070867;23;20030;-85
2021/07/28 10:08:47;;;;;;;1.33;1.00;;;21.40;78.30;;;;;;6080585;23;20581;-86
2021/07/28 10:11:31;;;;;;;1.10;1.00;;;21.30;78.00;;;;;;6076080;23;20359;-84
2021/07/28 10:14:09;;;;;;;1.10;1.00;;;21.40;78.00;;;;;;6101931;23;20029;-87
2021/07/28 10:16:35;;;;;;;1.15;1.00;;;21.50;77.80;;;;;;6127431;23;20182;-86
2021/07/28 10:19:07;;;;;;;1.98;1.17;;;21.70;77.40;;;;;;6125164;23;20616;-86
2021/07/28 10:21:43;;;;;;;1.75;1.05;;;21.70;76.90;;;;;;6075546;23;20074;-91
2021/07/28 10:24:13;;;;;;;1.23;1.00;;;21.80;76.90;;;;;;6076678;23;20584;-84
2021/07/28 10:27:17;;;;;;;1.65;1.00;;;21.80;76.80;;;;;;6021785;23;20106;-85
2021/07/28 10:30:14;;;;;;;1.27;1.17;;;21.70;76.80;;;;;;5949329;24;20028;-88
2021/07/28 10:33:13;;;;;;;2.63;1.33;;;21.40;76.80;;;;;;5996467;23;20021;-88
2021/07/28 10:35:51;;;;;;;1.33;1.23;;;21.20;77.40;;;;;;5928104;24;20627;-86
2021/07/28 10:38:22;;;;;;;1.20;1.10;;;21.30;77.50;;;;;;5951863;24;20099;-85
2021/07/28 10:40:59;;;;;;;2.65;1.13;;;21.60;77.00;;;;;;5905965;24;20066;-86
2021/07/28 10:43:27;;;;;;;1.25;1.08;;;21.70;76.30;;;;;;5896797;24;20170;-89
2021/07/28 10:45:56;;;;;;;1.50;1.20;;;21.90;75.80;;;;;;5900822;24;20026;-82
2021/07/28 10:48:50;;;;;;;1.40;1.30;;;21.90;75.30;;;;;;5923566;24;20041;-86
2021/07/28 10:51:51;;;;;;;2.05;1.45;;;21.80;75.80;;;;;;5900203;24;20048;-83
2021/07/28 10:55:19;;;;;;;;;;;21.60;75.30;;;;;;5929495;24;20083;-87
2021/07/28 10:58:20;;;;;;;1.73;1.10;;;21.50;75.90;;;;;;5948356;24;19915;-87
2021/07/28 11:00:55;;;;;;;1.00;1.00;;;21.20;76.20;;;;;;6006408;23;20022;-87
2021/07/28 11:03:29;;;;;;;2.22;1.00;;;21.40;76.50;;;;;;6048105;23;20021;-85
2021/07/28 11:06:45;;;;;;;1.23;1.00;;;21.40;75.90;;;;;;6043284;23;20026;-86
2021/07/28 11:09:37;;;;;;;0.80;0.80;;;21.60;75.80;;;;;;6071358;23;20482;-87
2021/07/28 11:12:23;;;;;;;0.80;0.80;;;21.60;75.70;;;;;;6157741;23;20056;-89
2021/07/28 11:14:48;;;;;;;0.85;0.82;;;21.70;75.80;;;;;;6095306;23;20519;-84
2021/07/28 11:17:24;;;;;;;1.80;1.00;;;21.80;75.70;;;;;;6096827;23;20015;-85
2021/07/28 11:20:44;;;;;;;1.10;1.00;;;22.00;74.70;;;;;;6015545;23;20023;-89
2021/07/28 11:26:51;;;;;;;1.17;1.08;;;22.10;73.60;;;;;;5970337;23;20473;-83
2021/07/28 11:30:20;;;;;;;1.33;1.10;;;22.10;73.90;;;;;;5983543;23;20119;-83
2021/07/28 11:33:22;;;;;;;1.27;1.17;;;22.20;73.50;;;;;;5885674;24;20022;-87
2021/07/28 11:35:53;;;;;;;1.23;1.10;;;22.00;73.30;;;;;;5872592;24;20030;-88
2021/07/28 11:38:48;;;;;;;1.85;1.15;;;21.80;73.60;;;;;;5878932;24;20028;-85
2021/07/28 11:41:21;;;;;;;1.15;1.00;;;21.70;73.90;;;;;;5854845;24;20030;-84
2021/07/28 11:43:47;;;;;;;1.23;1.10;;;21.60;74.30;;;;;;5852675;24;20129;-85
2021/07/28 11:46:16;;;;;;;1.20;0.98;;;21.50;74.60;;;;;;5851485;24;20030;-85
2021/07/28 11:49:22;;;;;;;1.63;1.00;;;21.70;74.70;;;;;;5876179;24;20109;-84
2021/07/28 11:51:57;;;;;;;1.35;1.10;;;21.90;74.00;;;;;;5924616;24;20017;-89
2021/07/28 11:54:22;;;;;;;1.13;0.90;;;21.90;73.50;;;;;;5924784;24;20451;-81
2021/07/28 11:56:52;;;;;;;1.42;0.80;;;21.90;73.50;;;;;;5932443;24;20070;-83
2021/07/28 11:59:23;;;;;;;1.52;1.00;;;21.90;73.40;;;;;;5989761;23;20068;-85
2021/07/28 12:02:30;;;;;;;0.93;0.70;;;21.80;73.50;;;;;;6038062;23;20019;-86
2021/07/28 12:08:03;;;;;;;0.75;0.70;;;21.70;74.10;;;;;;6123977;23;20028;-85
2021/07/28 12:11:33;;;;;;;0.82;0.77;;;22.00;73.50;;;;;;6192772;23;20074;-89
2021/07/28 12:14:25;;;;;;;0.90;0.80;;;22.10;72.80;;;;;;6111924;23;21110;-87
2021/07/28 12:20:58;;;;;;;0.80;0.80;;;22.10;72.50;;;;;;5922818;24;20017;-90
2021/07/28 12:23:31;;;;;;;1.55;0.77;;;22.00;72.70;;;;;;5900910;24;20017;-87
2021/07/28 12:26:01;;;;;;;0.80;0.70;;;21.80;72.90;;;;;;5948458;24;20013;-82
2021/07/28 12:31:37;;;;;;;1.85;0.85;;;21.70;73.20;;;;;;5929982;23;19918;-82
2021/07/28 12:34:22;;;;;;;1.27;0.98;;;21.80;73.00;;;;;;6008432;23;20020;-91
2021/07/28 12:37:18;;;;;;;1.52;0.75;;;21.80;72.80;;;;;;6007165;23;20466;-89
2021/07/28 12:40:26;;;;;;;1.73;0.90;;;21.80;72.70;;;;;;5980416;23;20035;-88
2021/07/28 12:47:04;;;;;;;0.85;0.80;;;21.80;72.80;;;;;;6010233;23;20042;-84
2021/07/28 12:49:33;;;;;;;0.82;0.80;;;21.60;72.90;;;;;;6061621;23;20022;-86
2021/07/28 12:51:59;;;;;;;2.47;0.95;;;21.60;73.10;;;;;;6126079;23;20458;-85
2021/07/28 12:54:24;;;;;;;1.17;1.00;;;21.70;73.20;;;;;;6125742;23;20052;-83
2021/07/28 12:56:53;;;;;;;1.70;0.70;;;21.80;72.70;;;;;;6146636;23;20348;-86
2021/07/28 12:59:22;;;;;;;1.95;0.93;;;22.00;72.20;;;;;;6072170;23;20014;-87
2021/07/28 13:01:47;;;;;;;2.90;0.90;;;22.20;71.60;;;;;;6096002;23;20079;-85
2021/07/28 13:04:14;;;;;;;1.50;1.20;;;22.20;71.20;;;;;;6046494;23;20018;-83
2021/07/28 13:06:47;;;;;;;1.88;1.20;;;22.10;71.10;;;;;;6071248;23;20018;-81
2021/07/28 13:09:13;;;;;;;1.90;1.08;;;21.90;71.30;;;;;;6069598;23;20021;-81
2021/07/28 13:11:38;;;;;;;1.20;1.08;;;21.80;71.50;;;;;;6070065;23;20466;-80
2021/07/28 13:14:04;;;;;;;2.03;1.30;;;21.70;71.60;;;;;;6099483;23;20392;-82
2021/07/28 13:16:30;;;;;;;1.73;1.17;;;21.60;71.80;;;;;;6121793;23;20018;-81
2021/07/28 13:18:55;;;;;;;2.65;1.05;;;21.50;71.90;;;;;;6133516;23;20451;-78
2021/07/28 13:21:21;;;;;;;1.48;1.10;;;21.30;72.10;;;;;;6153839;23;20019;-80
2021/07/28 13:24:00;;;;;;;1.50;1.15;;;20.90;73.00;;;;;;6158980;23;20009;-83
2021/07/28 13:30:09;;;;;;;0.82;0.82;;;20.30;74.70;;;;;;6298910;22;20019;-86
2021/07/28 13:36:00;;;;;;;0.68;0.68;;;20.10;75.30;;;;;;6344678;22;20033;-86
2021/07/28 13:38:30;;;;;;;1.02;0.88;;;20.20;75.30;;;;;;6342633;22;20010;-84
2021/07/28 13:40:56;;;;;;;1.35;1.00;;;20.10;75.10;;;;;;6241410;22;20026;-85
2021/07/28 13:43:27;;;;;;;2.08;1.10;;;20.30;75.00;;;;;;6232550;22;20019;-83
2021/07/28 13:45:57;;;;;;;1.13;1.00;;;20.40;74.70;;;;;;6232060;22;20024;-87
2021/07/28 13:48:23;;;;;;;0.88;0.82;;;20.50;74.40;;;;;;6189850;22;20043;-83
2021/07/28 13:50:48;;;;;;;0.95;0.90;;;20.70;74.10;;;;;;6244446;22;20024;-86
2021/07/28 13:53:14;;;;;;;1.45;0.90;;;20.70;73.90;;;;;;6217680;22;20364;-85
2021/07/28 13:55:40;;;;;;;1.15;0.90;;;20.90;73.90;;;;;;6219390;22;20016;-84
2021/07/28 13:58:05;;;;;;;1.88;1.00;;;21.10;73.20;;;;;;6220044;22;20004;-84
2021/07/28 14:01:23;;;;;;;0.90;0.90;;;21.10;72.70;;;;;;6219794;22;20433;-86
2021/07/28 14:03:49;;;;;;;1.55;0.90;;;21.20;72.70;;;;;;6137739;23;20021;-84
2021/07/28 14:06:17;;;;;;;1.17;1.00;;;21.30;72.40;;;;;;6103478;23;20076;-85